createdAt,value
2023-03-18T00:01:07.641Z,7.00
2023-03-18T00:06:14.136Z,6.90
2023-03-18T00:11:21.560Z,6.70
2023-03-18T00:16:25.604Z,7.20
2023-03-18T00:21:29.887Z,7.10
2023-03-18T00:26:33.140Z,7.00
2023-03-18T00:31:38.580Z,7.20
2023-03-18T00:36:42.118Z,7.20
2023-03-18T00:41:45.632Z,7.40
2023-03-18T00:46:49.225Z,6.70
2023-03-18T00:51:53.488Z,7.40
2023-03-18T00:56:58.082Z,6.80
2023-03-18T01:02:01.475Z,7.30
2023-03-18T01:07:04.748Z,6.80
2023-03-18T01:12:11.009Z,6.30
2023-03-18T01:17:14.849Z,6.70
2023-03-18T01:22:18.980Z,7.20
2023-03-18T01:27:22.200Z,6.70
2023-03-18T01:32:25.499Z,6.20
2023-03-18T01:37:29.320Z,6.80
2023-03-18T01:42:32.734Z,7.40
2023-03-18T01:47:35.939Z,7.40
2023-03-18T01:52:39.360Z,6.10
2023-03-18T01:57:44.607Z,4.70
2023-03-18T02:02:49.969Z,6.00
2023-03-18T02:07:53.688Z,6.60
2023-03-18T02:13:04.781Z,6.30
2023-03-18T02:18:11.883Z,6.30
2023-03-18T02:23:30.246Z,6.30
2023-03-18T02:28:36.120Z,5.90
2023-03-18T02:33:43.000Z,6.10
2023-03-18T02:38:47.543Z,10.90
2023-03-18T02:43:50.861Z,6.50
2023-03-18T02:48:55.362Z,5.20
2023-03-18T02:54:10.475Z,6.20
2023-03-18T02:59:14.622Z,6.90
2023-03-18T03:04:19.473Z,6.20
2023-03-18T03:09:23.292Z,6.10
2023-03-18T03:14:26.812Z,5.30
2023-03-18T03:19:31.147Z,5.40
2023-03-18T03:24:34.348Z,5.70
2023-03-18T03:29:37.658Z,6.20
2023-03-18T03:34:41.858Z,5.90
2023-03-18T03:39:45.714Z,5.10
2023-03-18T03:44:49.025Z,4.80
2023-03-18T03:49:52.745Z,6.10
2023-03-18T03:55:00.980Z,6.70
2023-03-18T04:00:07.491Z,4.30
2023-03-18T04:05:12.786Z,5.40
2023-03-18T04:10:18.340Z,6.00
2023-03-18T04:15:22.307Z,4.90
2023-03-18T04:20:25.613Z,4.50
2023-03-18T04:25:29.720Z,4.70
2023-03-18T04:30:34.200Z,5.20
2023-03-18T04:35:38.173Z,5.70
2023-03-18T04:40:43.093Z,5.20
2023-03-18T04:45:46.265Z,4.70
2023-03-18T04:50:50.602Z,5.00
2023-03-18T05:00:57.139Z,4.30
2023-03-18T05:06:00.427Z,5.50
2023-03-18T05:11:03.733Z,4.40
2023-03-18T05:16:07.308Z,4.40
2023-03-18T05:21:11.187Z,4.80
2023-03-18T05:26:14.493Z,4.10
2023-03-18T05:31:17.918Z,4.50
2023-03-18T05:36:21.221Z,4.20
2023-03-18T05:41:25.136Z,4.50
2023-03-18T05:46:29.355Z,4.50
2023-03-18T05:56:35.987Z,5.60
2023-03-18T06:01:39.708Z,4.00
2023-03-18T06:06:43.739Z,3.90
2023-03-18T06:11:46.951Z,4.90
2023-03-18T06:16:50.203Z,4.40
2023-03-18T06:21:53.570Z,4.20
2023-03-18T06:26:56.880Z,3.10
2023-03-18T06:32:00.101Z,3.60
2023-03-18T06:37:04.729Z,4.70
2023-03-18T06:42:08.044Z,5.40
2023-03-18T06:47:11.352Z,3.60
2023-03-18T06:52:14.848Z,4.60
2023-03-18T06:57:18.792Z,4.10
2023-03-18T07:02:25.282Z,4.00
2023-03-18T07:07:29.353Z,3.60
2023-03-18T07:12:32.820Z,3.80
2023-03-18T07:17:37.567Z,4.50
2023-03-18T07:22:40.777Z,4.00
2023-03-18T07:27:44.095Z,3.50
2023-03-18T07:32:47.437Z,4.10
2023-03-18T07:37:50.806Z,3.40
2023-03-18T07:42:54.131Z,3.00
2023-03-18T07:47:58.268Z,3.70
2023-03-18T07:58:05.480Z,3.00
2023-03-18T08:03:09.822Z,3.50
2023-03-18T08:13:16.316Z,3.30
2023-03-18T08:18:19.961Z,3.30
2023-03-18T08:23:24.189Z,3.60
2023-03-18T08:28:27.699Z,2.90
2023-03-18T08:33:31.069Z,3.40
2023-03-18T08:38:35.350Z,3.60
2023-03-18T08:48:42.586Z,3.40
2023-03-18T08:53:45.796Z,4.00
2023-03-18T08:58:49.003Z,4.60
2023-03-18T09:03:52.219Z,3.80
2023-03-18T09:08:55.501Z,4.40
2023-03-18T09:13:58.934Z,4.30
2023-03-18T09:19:02.144Z,4.00
2023-03-18T09:24:07.422Z,3.80
2023-03-18T09:29:11.049Z,5.00
2023-03-18T09:34:14.732Z,5.30
2023-03-18T09:39:22.212Z,4.60
2023-03-18T09:44:31.917Z,3.60
2023-03-18T09:49:39.410Z,4.00
2023-03-18T09:54:45.678Z,4.20
2023-03-18T09:59:59.248Z,4.70
2023-03-18T10:10:39.299Z,4.80
2023-03-18T10:15:57.171Z,7.70
2023-03-18T10:21:36.624Z,6.10
2023-03-18T10:26:50.551Z,4.20
2023-03-18T10:32:17.893Z,3.70
2023-03-18T10:37:47.013Z,4.30
2023-03-18T10:42:53.218Z,3.70
2023-03-18T10:47:59.585Z,3.60
2023-03-18T10:53:08.515Z,3.90
2023-03-18T10:58:17.491Z,5.60
2023-03-18T11:03:30.908Z,3.90
2023-03-18T11:08:37.902Z,3.80
2023-03-18T11:13:47.363Z,3.40
2023-03-18T11:18:52.970Z,8.80
2023-03-18T11:24:21.221Z,3.90
2023-03-18T11:29:34.776Z,3.20
2023-03-18T11:34:37.996Z,4.50
2023-03-18T11:39:41.911Z,3.30
2023-03-18T11:44:45.204Z,3.50
2023-03-18T11:49:48.415Z,7.00
2023-03-18T11:55:12.121Z,3.50
2023-03-18T12:00:46.034Z,4.20
2023-03-18T12:06:26.530Z,4.20
2023-03-18T12:11:35.563Z,3.80
2023-03-18T12:17:17.687Z,3.60
2023-03-18T12:22:23.859Z,4.70
2023-03-18T12:27:51.335Z,4.10
2023-03-18T12:33:22.194Z,3.20
2023-03-18T12:38:54.503Z,3.00
2023-03-18T12:44:28.012Z,5.00
2023-03-18T12:49:54.781Z,2.70
2023-03-18T12:55:12.413Z,3.10
2023-03-18T13:00:33.927Z,3.30
2023-03-18T13:05:41.172Z,2.70
2023-03-18T13:10:50.705Z,6.70
2023-03-18T13:15:54.949Z,4.80
2023-03-18T13:21:00.724Z,5.50
2023-03-18T13:26:07.399Z,3.70
2023-03-18T13:31:29.037Z,4.60
2023-03-18T13:36:57.227Z,2.70
2023-03-18T13:42:10.060Z,5.70
2023-03-18T13:47:21.884Z,3.70
2023-03-18T13:52:42.283Z,3.30
2023-03-18T13:57:57.576Z,5.00
2023-03-18T14:03:27.146Z,3.20
2023-03-18T14:08:39.008Z,4.20
2023-03-18T14:13:43.348Z,4.50
2023-03-18T14:19:03.556Z,4.80
2023-03-18T14:24:15.677Z,5.10
2023-03-18T14:29:28.407Z,4.90
2023-03-18T14:34:33.878Z,4.40
2023-03-18T14:39:51.720Z,4.00
2023-03-18T14:45:00.765Z,5.30
2023-03-18T14:50:15.187Z,4.00
2023-03-18T14:55:27.460Z,3.80
2023-03-18T15:00:36.709Z,3.90
2023-03-18T15:05:43.397Z,4.00
2023-03-18T15:10:50.204Z,4.30
2023-03-18T15:15:57.160Z,4.50
2023-03-18T15:21:10.140Z,4.20
2023-03-18T15:26:29.614Z,6.60
2023-03-18T15:31:41.588Z,4.50
2023-03-18T15:36:56.737Z,5.00
2023-03-18T15:42:02.828Z,5.40
2023-03-18T15:47:31.833Z,5.10
2023-03-18T15:52:39.416Z,5.20
2023-03-18T15:57:43.651Z,5.80
2023-03-18T16:02:47.206Z,5.10
2023-03-18T16:07:52.860Z,4.00
2023-03-18T16:13:01.589Z,5.80
2023-03-18T16:18:04.877Z,5.80
2023-03-18T16:23:08.504Z,5.40
2023-03-18T16:28:21.342Z,7.50
2023-03-18T16:33:25.359Z,4.80
2023-03-18T16:38:30.308Z,7.20
2023-03-18T16:43:33.945Z,22.40
2023-03-18T16:48:37.231Z,43.30
2023-03-18T16:53:40.440Z,17.90
2023-03-18T16:58:44.882Z,8.70
2023-03-18T17:03:48.353Z,8.60
2023-03-18T17:08:52.841Z,8.50
2023-03-18T17:13:56.655Z,8.30
2023-03-18T17:19:00.479Z,10.60
2023-03-18T17:24:03.661Z,9.40
2023-03-18T17:29:08.762Z,7.80
2023-03-18T17:34:15.234Z,8.40
2023-03-18T17:39:18.471Z,8.40
2023-03-18T17:44:21.640Z,7.90
2023-03-18T17:49:27.313Z,12.50
2023-03-18T17:54:33.191Z,8.60
2023-03-18T17:59:36.585Z,10.10
2023-03-18T18:04:40.311Z,7.80
2023-03-18T18:09:43.821Z,6.00
2023-03-18T18:14:47.753Z,5.70
2023-03-18T18:19:51.669Z,5.70
2023-03-18T18:24:58.092Z,6.70
2023-03-18T18:30:01.372Z,6.80
2023-03-18T18:35:04.882Z,7.90
2023-03-18T18:40:10.904Z,7.40
2023-03-18T18:45:19.904Z,8.40
2023-03-18T18:50:35.704Z,9.30
2023-03-18T18:55:38.927Z,8.10
2023-03-18T19:00:42.235Z,6.90
2023-03-18T19:05:47.274Z,7.00
2023-03-18T19:10:52.025Z,12.20
2023-03-18T19:16:01.200Z,7.40
2023-03-18T19:21:04.887Z,8.50
2023-03-18T19:26:13.668Z,8.30
2023-03-18T19:31:24.682Z,7.40
2023-03-18T19:36:31.908Z,6.40
2023-03-18T19:41:35.335Z,6.90
2023-03-18T19:46:39.880Z,7.70
2023-03-18T19:51:43.952Z,7.80
2023-03-18T19:56:47.825Z,10.10
2023-03-18T20:01:51.753Z,16.70
2023-03-18T20:06:56.962Z,9.50
2023-03-18T20:12:05.696Z,10.60
2023-03-18T20:17:25.547Z,28.40
2023-03-18T20:22:36.868Z,56.70
2023-03-18T20:27:40.055Z,40.90
2023-03-18T20:32:44.360Z,19.50
2023-03-18T20:42:52.895Z,9.80
2023-03-18T20:47:56.989Z,10.00
2023-03-18T20:53:00.187Z,9.60
2023-03-18T20:58:04.241Z,9.20
2023-03-18T21:03:22.176Z,7.90
2023-03-18T21:08:27.428Z,9.40
2023-03-18T21:13:39.309Z,8.50
2023-03-18T21:18:45.869Z,8.40
2023-03-18T21:23:50.055Z,7.30
2023-03-18T21:28:53.260Z,8.30
2023-03-18T21:33:57.701Z,7.20
2023-03-18T21:39:01.322Z,7.70
2023-03-18T21:44:04.837Z,6.80
2023-03-18T21:49:10.218Z,6.80
2023-03-18T21:54:20.161Z,6.80
2023-03-18T21:59:23.377Z,7.60
2023-03-18T22:04:26.618Z,8.30
2023-03-18T22:09:30.837Z,9.10
2023-03-18T22:14:35.145Z,9.00
2023-03-18T22:19:38.457Z,14.50
2023-03-18T22:24:41.774Z,17.00
2023-03-18T22:29:45.407Z,13.50
2023-03-18T22:34:49.310Z,11.60
2023-03-18T22:39:53.544Z,10.00
2023-03-18T22:44:57.171Z,8.40
2023-03-18T22:50:00.578Z,8.70
2023-03-18T22:55:15.354Z,8.40
2023-03-18T23:00:26.086Z,10.50
2023-03-18T23:05:29.588Z,11.00
2023-03-18T23:10:33.064Z,10.80
2023-03-18T23:15:36.746Z,7.90
2023-03-18T23:20:40.197Z,7.80
2023-03-18T23:25:45.623Z,6.80
2023-03-18T23:30:53.063Z,8.80
2023-03-18T23:35:56.408Z,10.00
2023-03-18T23:40:59.583Z,9.30
2023-03-18T23:46:04.053Z,9.10
2023-03-18T23:51:07.241Z,9.40
2023-03-18T23:56:12.084Z,9.70
